sensor_id;sensor_type;location;lat;lon;timestamp;P1;durP1;ratioP1;P2;durP2;ratioP2
14778;SDS011;7481;53.750;10.570;2024-03-07T00:00:51;25.40;;;14.67;;
14778;SDS011;7481;53.750;10.570;2024-03-07T00:05:24;26.43;;;14.13;;
14778;SDS011;7481;53.750;10.570;2024-03-07T00:09:57;28.33;;;14.03;;
14778;SDS011;7481;53.750;10.570;2024-03-07T00:14:24;29.63;;;14.70;;
14778;SDS011;7481;53.750;10.570;2024-03-07T00:18:55;26.93;;;14.53;;
14778;SDS011;7481;53.750;10.570;2024-03-07T00:23:20;26.63;;;13.97;;
14778;SDS011;7481;53.750;10.570;2024-03-07T00:27:44;27.83;;;14.33;;
14778;SDS011;7481;53.750;10.570;2024-03-07T00:32:11;23.70;;;12.93;;
14778;SDS011;7481;53.750;10.570;2024-03-07T00:36:37;23.77;;;13.40;;
14778;SDS011;7481;53.750;10.570;2024-03-07T00:41:06;28.93;;;15.40;;
14778;SDS011;7481;53.750;10.570;2024-03-07T00:45:36;27.97;;;13.50;;
14778;SDS011;7481;53.750;10.570;2024-03-07T00:50:03;26.40;;;13.87;;
14778;SDS011;7481;53.750;10.570;2024-03-07T00:54:26;28.10;;;12.60;;
14778;SDS011;7481;53.750;10.570;2024-03-07T00:58:48;23.67;;;13.00;;
14778;SDS011;7481;53.750;10.570;2024-03-07T01:03:12;28.27;;;13.10;;
14778;SDS011;7481;53.750;10.570;2024-03-07T01:07:36;25.13;;;12.20;;
14778;SDS011;7481;53.750;10.570;2024-03-07T01:12:01;22.77;;;13.23;;
14778;SDS011;7481;53.750;10.570;2024-03-07T01:16:28;22.87;;;12.80;;
14778;SDS011;7481;53.750;10.570;2024-03-07T01:20:55;23.50;;;12.37;;
14778;SDS011;7481;53.750;10.570;2024-03-07T01:25:20;21.57;;;12.93;;
14778;SDS011;7481;53.750;10.570;2024-03-07T01:29:43;27.40;;;13.43;;
14778;SDS011;7481;53.750;10.570;2024-03-07T01:34:10;20.00;;;12.20;;
14778;SDS011;7481;53.750;10.570;2024-03-07T01:38:35;19.93;;;12.13;;
14778;SDS011;7481;53.750;10.570;2024-03-07T01:43:04;23.90;;;11.90;;
14778;SDS011;7481;53.750;10.570;2024-03-07T01:47:29;25.37;;;12.07;;
14778;SDS011;7481;53.750;10.570;2024-03-07T01:51:57;20.43;;;11.30;;
14778;SDS011;7481;53.750;10.570;2024-03-07T01:56:25;21.90;;;11.80;;
14778;SDS011;7481;53.750;10.570;2024-03-07T02:00:48;27.47;;;11.37;;
14778;SDS011;7481;53.750;10.570;2024-03-07T02:05:11;27.73;;;12.30;;
14778;SDS011;7481;53.750;10.570;2024-03-07T02:09:35;22.67;;;11.17;;
14778;SDS011;7481;53.750;10.570;2024-03-07T02:13:59;21.37;;;12.67;;
14778;SDS011;7481;53.750;10.570;2024-03-07T02:18:24;18.37;;;10.57;;
14778;SDS011;7481;53.750;10.570;2024-03-07T02:22:49;23.00;;;11.27;;
14778;SDS011;7481;53.750;10.570;2024-03-07T02:27:15;26.30;;;12.57;;
14778;SDS011;7481;53.750;10.570;2024-03-07T02:31:40;23.00;;;12.03;;
14778;SDS011;7481;53.750;10.570;2024-03-07T02:36:03;22.30;;;12.63;;
14778;SDS011;7481;53.750;10.570;2024-03-07T02:40:34;23.90;;;13.13;;
14778;SDS011;7481;53.750;10.570;2024-03-07T02:44:57;23.03;;;12.50;;
14778;SDS011;7481;53.750;10.570;2024-03-07T02:49:21;21.30;;;12.97;;
14778;SDS011;7481;53.750;10.570;2024-03-07T02:53:45;22.43;;;13.73;;
14778;SDS011;7481;53.750;10.570;2024-03-07T02:58:18;23.03;;;12.43;;
14778;SDS011;7481;53.750;10.570;2024-03-07T03:02:42;22.40;;;12.73;;
14778;SDS011;7481;53.750;10.570;2024-03-07T03:07:08;24.80;;;13.73;;
14778;SDS011;7481;53.750;10.570;2024-03-07T03:11:32;26.17;;;13.10;;
14778;SDS011;7481;53.750;10.570;2024-03-07T03:15:58;22.77;;;13.50;;
14778;SDS011;7481;53.750;10.570;2024-03-07T03:20:24;22.00;;;13.27;;
14778;SDS011;7481;53.750;10.570;2024-03-07T03:24:49;20.97;;;13.67;;
14778;SDS011;7481;53.750;10.570;2024-03-07T03:29:13;23.87;;;12.53;;
14778;SDS011;7481;53.750;10.570;2024-03-07T03:33:38;23.90;;;13.67;;
14778;SDS011;7481;53.750;10.570;2024-03-07T03:38:04;22.77;;;13.47;;
14778;SDS011;7481;53.750;10.570;2024-03-07T03:42:27;25.83;;;14.60;;
14778;SDS011;7481;53.750;10.570;2024-03-07T03:46:51;24.77;;;13.27;;
14778;SDS011;7481;53.750;10.570;2024-03-07T03:51:16;24.97;;;13.83;;
14778;SDS011;7481;53.750;10.570;2024-03-07T03:55:46;20.77;;;13.27;;
14778;SDS011;7481;53.750;10.570;2024-03-07T04:00:13;23.27;;;14.20;;
14778;SDS011;7481;53.750;10.570;2024-03-07T04:04:40;22.93;;;13.53;;
14778;SDS011;7481;53.750;10.570;2024-03-07T04:09:05;23.97;;;14.43;;
14778;SDS011;7481;53.750;10.570;2024-03-07T04:13:31;24.13;;;14.17;;
14778;SDS011;7481;53.750;10.570;2024-03-07T04:17:57;25.03;;;14.10;;
14778;SDS011;7481;53.750;10.570;2024-03-07T04:22:23;21.97;;;12.83;;
14778;SDS011;7481;53.750;10.570;2024-03-07T04:26:48;21.67;;;13.33;;
14778;SDS011;7481;53.750;10.570;2024-03-07T04:31:21;22.20;;;14.80;;
14778;SDS011;7481;53.750;10.570;2024-03-07T04:35:44;18.83;;;11.47;;
14778;SDS011;7481;53.750;10.570;2024-03-07T04:40:11;21.10;;;12.83;;
14778;SDS011;7481;53.750;10.570;2024-03-07T04:44:39;25.37;;;13.77;;
14778;SDS011;7481;53.750;10.570;2024-03-07T04:49:04;20.60;;;12.27;;
14778;SDS011;7481;53.750;10.570;2024-03-07T04:53:30;20.83;;;13.10;;
14778;SDS011;7481;53.750;10.570;2024-03-07T04:57:54;18.60;;;12.63;;
14778;SDS011;7481;53.750;10.570;2024-03-07T05:02:22;22.17;;;12.63;;
14778;SDS011;7481;53.750;10.570;2024-03-07T05:06:50;20.07;;;11.03;;
14778;SDS011;7481;53.750;10.570;2024-03-07T05:11:14;16.67;;;10.43;;
14778;SDS011;7481;53.750;10.570;2024-03-07T05:15:38;26.33;;;12.53;;
14778;SDS011;7481;53.750;10.570;2024-03-07T05:20:11;19.33;;;12.13;;
14778;SDS011;7481;53.750;10.570;2024-03-07T05:24:39;18.13;;;11.63;;
14778;SDS011;7481;53.750;10.570;2024-03-07T05:29:08;23.53;;;11.97;;
14778;SDS011;7481;53.750;10.570;2024-03-07T05:33:45;21.77;;;11.83;;
14778;SDS011;7481;53.750;10.570;2024-03-07T05:38:10;18.20;;;11.13;;
14778;SDS011;7481;53.750;10.570;2024-03-07T05:42:35;18.90;;;11.10;;
14778;SDS011;7481;53.750;10.570;2024-03-07T05:47:01;18.27;;;10.47;;
14778;SDS011;7481;53.750;10.570;2024-03-07T05:51:28;18.17;;;10.83;;
14778;SDS011;7481;53.750;10.570;2024-03-07T05:55:57;21.90;;;11.47;;
14778;SDS011;7481;53.750;10.570;2024-03-07T06:00:30;20.17;;;11.43;;
14778;SDS011;7481;53.750;10.570;2024-03-07T06:05:01;21.27;;;13.63;;
14778;SDS011;7481;53.750;10.570;2024-03-07T06:09:27;17.87;;;11.30;;
14778;SDS011;7481;53.750;10.570;2024-03-07T06:13:51;17.43;;;11.43;;
14778;SDS011;7481;53.750;10.570;2024-03-07T06:18:17;23.33;;;12.00;;
14778;SDS011;7481;53.750;10.570;2024-03-07T06:22:43;21.30;;;11.90;;
14778;SDS011;7481;53.750;10.570;2024-03-07T06:27:21;22.57;;;12.40;;
14778;SDS011;7481;53.750;10.570;2024-03-07T06:32:02;18.73;;;12.03;;
14778;SDS011;7481;53.750;10.570;2024-03-07T06:36:24;22.23;;;11.93;;
14778;SDS011;7481;53.750;10.570;2024-03-07T06:40:54;20.97;;;12.47;;
14778;SDS011;7481;53.750;10.570;2024-03-07T06:45:20;22.47;;;12.40;;
14778;SDS011;7481;53.750;10.570;2024-03-07T06:49:48;21.63;;;12.47;;
14778;SDS011;7481;53.750;10.570;2024-03-07T06:54:14;24.07;;;13.50;;
14778;SDS011;7481;53.750;10.570;2024-03-07T06:58:38;20.87;;;13.07;;
14778;SDS011;7481;53.750;10.570;2024-03-07T07:03:01;22.90;;;14.33;;
14778;SDS011;7481;53.750;10.570;2024-03-07T07:07:29;21.97;;;12.47;;
14778;SDS011;7481;53.750;10.570;2024-03-07T07:11:52;20.27;;;12.70;;
14778;SDS011;7481;53.750;10.570;2024-03-07T07:16:16;18.00;;;12.17;;
14778;SDS011;7481;53.750;10.570;2024-03-07T07:20:42;16.27;;;10.53;;
14778;SDS011;7481;53.750;10.570;2024-03-07T07:25:05;18.33;;;12.10;;
14778;SDS011;7481;53.750;10.570;2024-03-07T07:29:35;18.13;;;11.10;;
14778;SDS011;7481;53.750;10.570;2024-03-07T07:33:59;17.20;;;9.90;;
14778;SDS011;7481;53.750;10.570;2024-03-07T07:38:23;21.47;;;12.17;;
14778;SDS011;7481;53.750;10.570;2024-03-07T07:42:47;18.77;;;10.53;;
14778;SDS011;7481;53.750;10.570;2024-03-07T07:47:11;18.57;;;10.47;;
14778;SDS011;7481;53.750;10.570;2024-03-07T07:51:34;21.87;;;13.07;;
14778;SDS011;7481;53.750;10.570;2024-03-07T07:56:05;22.23;;;12.63;;
14778;SDS011;7481;53.750;10.570;2024-03-07T08:00:29;21.50;;;12.23;;
14778;SDS011;7481;53.750;10.570;2024-03-07T08:04:53;25.97;;;13.37;;
14778;SDS011;7481;53.750;10.570;2024-03-07T08:09:16;24.90;;;12.77;;
14778;SDS011;7481;53.750;10.570;2024-03-07T08:13:40;24.00;;;13.13;;
14778;SDS011;7481;53.750;10.570;2024-03-07T08:18:04;19.93;;;12.30;;
14778;SDS011;7481;53.750;10.570;2024-03-07T08:22:34;27.47;;;15.20;;
14778;SDS011;7481;53.750;10.570;2024-03-07T08:26:58;21.77;;;13.43;;
14778;SDS011;7481;53.750;10.570;2024-03-07T08:31:21;31.63;;;15.47;;
14778;SDS011;7481;53.750;10.570;2024-03-07T08:35:46;30.57;;;15.37;;
14778;SDS011;7481;53.750;10.570;2024-03-07T08:40:15;28.60;;;15.40;;
14778;SDS011;7481;53.750;10.570;2024-03-07T08:44:43;30.60;;;17.77;;
14778;SDS011;7481;53.750;10.570;2024-03-07T08:49:07;27.70;;;16.90;;
14778;SDS011;7481;53.750;10.570;2024-03-07T08:53:31;30.67;;;17.70;;
14778;SDS011;7481;53.750;10.570;2024-03-07T08:57:56;29.80;;;16.10;;
14778;SDS011;7481;53.750;10.570;2024-03-07T09:02:19;29.13;;;18.07;;
14778;SDS011;7481;53.750;10.570;2024-03-07T09:06:42;34.97;;;16.23;;
14778;SDS011;7481;53.750;10.570;2024-03-07T09:11:07;26.40;;;14.40;;
14778;SDS011;7481;53.750;10.570;2024-03-07T09:15:30;25.70;;;15.47;;
14778;SDS011;7481;53.750;10.570;2024-03-07T09:19:56;26.37;;;16.17;;
14778;SDS011;7481;53.750;10.570;2024-03-07T09:24:20;25.60;;;15.17;;
14778;SDS011;7481;53.750;10.570;2024-03-07T09:28:44;32.53;;;15.53;;
14778;SDS011;7481;53.750;10.570;2024-03-07T09:33:09;27.60;;;16.77;;
14778;SDS011;7481;53.750;10.570;2024-03-07T09:37:32;29.97;;;15.60;;
14778;SDS011;7481;53.750;10.570;2024-03-07T09:41:56;28.10;;;15.33;;
14778;SDS011;7481;53.750;10.570;2024-03-07T09:46:23;29.40;;;16.97;;
14778;SDS011;7481;53.750;10.570;2024-03-07T09:50:49;28.37;;;16.80;;
14778;SDS011;7481;53.750;10.570;2024-03-07T09:55:14;30.03;;;16.47;;
14778;SDS011;7481;53.750;10.570;2024-03-07T09:59:39;28.63;;;16.47;;
14778;SDS011;7481;53.750;10.570;2024-03-07T10:04:07;29.57;;;16.70;;
14778;SDS011;7481;53.750;10.570;2024-03-07T10:08:37;30.47;;;17.53;;
14778;SDS011;7481;53.750;10.570;2024-03-07T10:13:03;32.80;;;17.20;;
14778;SDS011;7481;53.750;10.570;2024-03-07T10:17:29;29.87;;;16.80;;
14778;SDS011;7481;53.750;10.570;2024-03-07T10:21:53;30.13;;;16.53;;
14778;SDS011;7481;53.750;10.570;2024-03-07T10:26:19;28.73;;;16.10;;
14778;SDS011;7481;53.750;10.570;2024-03-07T10:30:44;31.23;;;18.13;;
14778;SDS011;7481;53.750;10.570;2024-03-07T10:35:08;27.13;;;15.30;;
14778;SDS011;7481;53.750;10.570;2024-03-07T10:39:43;29.87;;;18.10;;
14778;SDS011;7481;53.750;10.570;2024-03-07T10:44:07;28.37;;;18.40;;
14778;SDS011;7481;53.750;10.570;2024-03-07T10:48:34;36.13;;;20.27;;
14778;SDS011;7481;53.750;10.570;2024-03-07T10:53:02;35.97;;;20.27;;
14778;SDS011;7481;53.750;10.570;2024-03-07T11:01:59;41.10;;;21.23;;
14778;SDS011;7481;53.750;10.570;2024-03-07T11:06:28;38.23;;;20.90;;
14778;SDS011;7481;53.750;10.570;2024-03-07T11:10:51;38.80;;;20.07;;
14778;SDS011;7481;53.750;10.570;2024-03-07T11:15:16;36.10;;;17.57;;
14778;SDS011;7481;53.750;10.570;2024-03-07T11:19:43;36.10;;;19.90;;
14778;SDS011;7481;53.750;10.570;2024-03-07T11:24:08;34.37;;;19.90;;
14778;SDS011;7481;53.750;10.570;2024-03-07T11:28:37;39.67;;;21.73;;
14778;SDS011;7481;53.750;10.570;2024-03-07T11:33:01;37.77;;;20.77;;
14778;SDS011;7481;53.750;10.570;2024-03-07T11:37:48;40.30;;;21.40;;
14778;SDS011;7481;53.750;10.570;2024-03-07T11:42:20;35.50;;;22.10;;
14778;SDS011;7481;53.750;10.570;2024-03-07T11:46:48;37.27;;;20.40;;
14778;SDS011;7481;53.750;10.570;2024-03-07T11:51:13;39.60;;;22.17;;
14778;SDS011;7481;53.750;10.570;2024-03-07T11:55:39;31.83;;;21.00;;
14778;SDS011;7481;53.750;10.570;2024-03-07T12:00:10;32.93;;;20.03;;
14778;SDS011;7481;53.750;10.570;2024-03-07T12:04:34;30.87;;;18.47;;
14778;SDS011;7481;53.750;10.570;2024-03-07T12:09:11;31.90;;;18.80;;
14778;SDS011;7481;53.750;10.570;2024-03-07T12:13:46;29.30;;;18.43;;
14778;SDS011;7481;53.750;10.570;2024-03-07T12:18:10;30.40;;;19.50;;
14778;SDS011;7481;53.750;10.570;2024-03-07T12:22:37;35.20;;;20.20;;
14778;SDS011;7481;53.750;10.570;2024-03-07T12:27:11;33.23;;;18.97;;
14778;SDS011;7481;53.750;10.570;2024-03-07T12:31:35;28.70;;;17.87;;
14778;SDS011;7481;53.750;10.570;2024-03-07T12:36:03;38.97;;;19.27;;
14778;SDS011;7481;53.750;10.570;2024-03-07T12:40:31;31.53;;;18.13;;
14778;SDS011;7481;53.750;10.570;2024-03-07T12:44:56;32.10;;;19.43;;
14778;SDS011;7481;53.750;10.570;2024-03-07T12:49:22;28.43;;;17.53;;
14778;SDS011;7481;53.750;10.570;2024-03-07T12:53:48;29.23;;;17.83;;
14778;SDS011;7481;53.750;10.570;2024-03-07T12:58:13;31.40;;;18.67;;
14778;SDS011;7481;53.750;10.570;2024-03-07T13:02:37;31.50;;;16.90;;
14778;SDS011;7481;53.750;10.570;2024-03-07T13:07:01;27.90;;;16.10;;
14778;SDS011;7481;53.750;10.570;2024-03-07T13:11:29;30.50;;;18.27;;
14778;SDS011;7481;53.750;10.570;2024-03-07T13:15:54;25.57;;;15.10;;
14778;SDS011;7481;53.750;10.570;2024-03-07T13:20:21;23.37;;;15.40;;
14778;SDS011;7481;53.750;10.570;2024-03-07T13:24:48;28.10;;;14.43;;
14778;SDS011;7481;53.750;10.570;2024-03-07T13:29:13;29.73;;;15.97;;
14778;SDS011;7481;53.750;10.570;2024-03-07T13:33:38;23.90;;;14.33;;
14778;SDS011;7481;53.750;10.570;2024-03-07T13:38:02;21.43;;;14.17;;
14778;SDS011;7481;53.750;10.570;2024-03-07T13:42:26;20.37;;;13.20;;
14778;SDS011;7481;53.750;10.570;2024-03-07T13:46:50;23.03;;;14.73;;
14778;SDS011;7481;53.750;10.570;2024-03-07T13:51:15;23.07;;;14.03;;
14778;SDS011;7481;53.750;10.570;2024-03-07T14:23:45;28.97;;;16.77;;
14778;SDS011;7481;53.750;10.570;2024-03-07T14:33:11;31.60;;;17.57;;
14778;SDS011;7481;53.750;10.570;2024-03-07T14:42:24;27.37;;;17.00;;
14778;SDS011;7481;53.750;10.570;2024-03-07T14:46:53;27.63;;;17.07;;
14778;SDS011;7481;53.750;10.570;2024-03-07T14:51:22;32.80;;;18.50;;
14778;SDS011;7481;53.750;10.570;2024-03-07T14:55:48;40.40;;;22.00;;
14778;SDS011;7481;53.750;10.570;2024-03-07T15:00:12;34.63;;;19.73;;
14778;SDS011;7481;53.750;10.570;2024-03-07T15:04:44;31.87;;;18.00;;
14778;SDS011;7481;53.750;10.570;2024-03-07T15:09:20;33.57;;;18.63;;
14778;SDS011;7481;53.750;10.570;2024-03-07T15:13:48;29.97;;;19.03;;
14778;SDS011;7481;53.750;10.570;2024-03-07T15:18:15;31.20;;;17.20;;
14778;SDS011;7481;53.750;10.570;2024-03-07T15:22:52;30.63;;;17.07;;
14778;SDS011;7481;53.750;10.570;2024-03-07T15:27:17;29.90;;;18.03;;
14778;SDS011;7481;53.750;10.570;2024-03-07T15:31:44;31.40;;;17.50;;
14778;SDS011;7481;53.750;10.570;2024-03-07T15:36:10;29.40;;;16.13;;
14778;SDS011;7481;53.750;10.570;2024-03-07T15:40:33;26.53;;;15.93;;
14778;SDS011;7481;53.750;10.570;2024-03-07T15:45:05;27.77;;;16.40;;
14778;SDS011;7481;53.750;10.570;2024-03-07T15:49:35;24.53;;;15.10;;
14778;SDS011;7481;53.750;10.570;2024-03-07T15:54:04;24.73;;;15.17;;
14778;SDS011;7481;53.750;10.570;2024-03-07T15:58:28;27.83;;;15.30;;
14778;SDS011;7481;53.750;10.570;2024-03-07T16:02:55;22.10;;;13.40;;
14778;SDS011;7481;53.750;10.570;2024-03-07T16:07:21;24.80;;;13.70;;
14778;SDS011;7481;53.750;10.570;2024-03-07T16:11:47;19.20;;;13.37;;
14778;SDS011;7481;53.750;10.570;2024-03-07T16:16:13;24.20;;;13.80;;
14778;SDS011;7481;53.750;10.570;2024-03-07T16:20:47;18.50;;;12.10;;
14778;SDS011;7481;53.750;10.570;2024-03-07T16:25:11;18.97;;;12.67;;
14778;SDS011;7481;53.750;10.570;2024-03-07T16:29:39;17.73;;;11.60;;
14778;SDS011;7481;53.750;10.570;2024-03-07T16:34:04;22.57;;;12.03;;
14778;SDS011;7481;53.750;10.570;2024-03-07T16:38:32;23.33;;;11.53;;
14778;SDS011;7481;53.750;10.570;2024-03-07T16:42:59;17.43;;;11.10;;
14778;SDS011;7481;53.750;10.570;2024-03-07T16:47:31;24.20;;;10.77;;
14778;SDS011;7481;53.750;10.570;2024-03-07T16:51:55;15.67;;;10.37;;
14778;SDS011;7481;53.750;10.570;2024-03-07T16:56:18;20.23;;;10.70;;
14778;SDS011;7481;53.750;10.570;2024-03-07T17:00:41;20.27;;;10.33;;
14778;SDS011;7481;53.750;10.570;2024-03-07T17:05:06;17.83;;;10.87;;
14778;SDS011;7481;53.750;10.570;2024-03-07T17:09:38;17.93;;;11.67;;
14778;SDS011;7481;53.750;10.570;2024-03-07T17:14:04;17.57;;;9.80;;
14778;SDS011;7481;53.750;10.570;2024-03-07T17:18:33;20.37;;;10.93;;
14778;SDS011;7481;53.750;10.570;2024-03-07T17:22:59;20.00;;;11.30;;
14778;SDS011;7481;53.750;10.570;2024-03-07T17:27:29;21.00;;;11.57;;
14778;SDS011;7481;53.750;10.570;2024-03-07T17:31:54;21.10;;;10.37;;
14778;SDS011;7481;53.750;10.570;2024-03-07T17:36:30;20.33;;;10.77;;
14778;SDS011;7481;53.750;10.570;2024-03-07T17:40:54;18.83;;;11.13;;
14778;SDS011;7481;53.750;10.570;2024-03-07T17:45:22;19.97;;;11.17;;
14778;SDS011;7481;53.750;10.570;2024-03-07T17:49:47;26.87;;;11.73;;
14778;SDS011;7481;53.750;10.570;2024-03-07T17:54:15;17.93;;;11.30;;
14778;SDS011;7481;53.750;10.570;2024-03-07T17:58:50;19.07;;;11.30;;
14778;SDS011;7481;53.750;10.570;2024-03-07T18:03:19;19.33;;;12.40;;
14778;SDS011;7481;53.750;10.570;2024-03-07T18:07:58;25.63;;;12.97;;
14778;SDS011;7481;53.750;10.570;2024-03-07T18:12:50;20.47;;;11.17;;
14778;SDS011;7481;53.750;10.570;2024-03-07T18:17:16;20.07;;;11.33;;
14778;SDS011;7481;53.750;10.570;2024-03-07T18:21:46;23.30;;;11.27;;
14778;SDS011;7481;53.750;10.570;2024-03-07T18:26:15;19.57;;;11.43;;
14778;SDS011;7481;53.750;10.570;2024-03-07T18:30:42;25.07;;;11.80;;
14778;SDS011;7481;53.750;10.570;2024-03-07T18:35:09;20.30;;;12.37;;
14778;SDS011;7481;53.750;10.570;2024-03-07T18:39:36;22.50;;;11.67;;
14778;SDS011;7481;53.750;10.570;2024-03-07T18:44:05;20.73;;;11.73;;
14778;SDS011;7481;53.750;10.570;2024-03-07T18:48:33;23.17;;;11.97;;
14778;SDS011;7481;53.750;10.570;2024-03-07T18:52:57;20.47;;;12.10;;
14778;SDS011;7481;53.750;10.570;2024-03-07T18:57:27;18.20;;;11.63;;
14778;SDS011;7481;53.750;10.570;2024-03-07T19:02:02;18.73;;;11.47;;
14778;SDS011;7481;53.750;10.570;2024-03-07T19:06:37;23.97;;;12.17;;
14778;SDS011;7481;53.750;10.570;2024-03-07T19:11:08;23.73;;;12.07;;
14778;SDS011;7481;53.750;10.570;2024-03-07T19:15:40;19.23;;;11.20;;
14778;SDS011;7481;53.750;10.570;2024-03-07T19:20:11;21.23;;;12.23;;
14778;SDS011;7481;53.750;10.570;2024-03-07T19:24:45;19.67;;;11.43;;
14778;SDS011;7481;53.750;10.570;2024-03-07T19:29:17;19.93;;;12.30;;
14778;SDS011;7481;53.750;10.570;2024-03-07T19:33:50;24.60;;;12.87;;
14778;SDS011;7481;53.750;10.570;2024-03-07T19:38:25;21.33;;;12.93;;
14778;SDS011;7481;53.750;10.570;2024-03-07T19:42:58;26.83;;;13.63;;
14778;SDS011;7481;53.750;10.570;2024-03-07T19:47:36;24.17;;;13.63;;
14778;SDS011;7481;53.750;10.570;2024-03-07T19:52:00;24.17;;;13.50;;
14778;SDS011;7481;53.750;10.570;2024-03-07T19:56:38;21.50;;;12.87;;
14778;SDS011;7481;53.750;10.570;2024-03-07T20:01:06;24.23;;;13.80;;
14778;SDS011;7481;53.750;10.570;2024-03-07T20:05:48;23.43;;;12.60;;
14778;SDS011;7481;53.750;10.570;2024-03-07T20:10:20;20.70;;;12.33;;
14778;SDS011;7481;53.750;10.570;2024-03-07T20:14:59;28.02;;;19.27;;
14778;SDS011;7481;53.750;10.570;2024-03-07T20:19:24;23.90;;;14.60;;
14778;SDS011;7481;53.750;10.570;2024-03-07T20:23:59;22.53;;;13.10;;
14778;SDS011;7481;53.750;10.570;2024-03-07T20:28:43;20.00;;;12.57;;
14778;SDS011;7481;53.750;10.570;2024-03-07T20:33:38;25.90;;;13.70;;
14778;SDS011;7481;53.750;10.570;2024-03-07T20:38:16;22.97;;;13.03;;
14778;SDS011;7481;53.750;10.570;2024-03-07T20:43:07;22.23;;;13.50;;
14778;SDS011;7481;53.750;10.570;2024-03-07T20:47:40;24.07;;;13.20;;
14778;SDS011;7481;53.750;10.570;2024-03-07T20:52:11;20.97;;;11.37;;
14778;SDS011;7481;53.750;10.570;2024-03-07T20:56:36;20.90;;;12.30;;
14778;SDS011;7481;53.750;10.570;2024-03-07T21:01:16;21.00;;;12.10;;
14778;SDS011;7481;53.750;10.570;2024-03-07T21:06:02;19.67;;;12.23;;
14778;SDS011;7481;53.750;10.570;2024-03-07T21:10:33;20.67;;;11.37;;
14778;SDS011;7481;53.750;10.570;2024-03-07T21:15:01;18.57;;;10.50;;
14778;SDS011;7481;53.750;10.570;2024-03-07T21:19:37;18.30;;;11.00;;
14778;SDS011;7481;53.750;10.570;2024-03-07T21:24:08;19.60;;;11.10;;
14778;SDS011;7481;53.750;10.570;2024-03-07T21:28:39;18.93;;;12.10;;
14778;SDS011;7481;53.750;10.570;2024-03-07T21:33:03;22.33;;;13.43;;
14778;SDS011;7481;53.750;10.570;2024-03-07T21:37:30;19.43;;;12.37;;
14778;SDS011;7481;53.750;10.570;2024-03-07T21:41:56;19.30;;;10.50;;
14778;SDS011;7481;53.750;10.570;2024-03-07T21:46:21;19.83;;;10.73;;
14778;SDS011;7481;53.750;10.570;2024-03-07T21:50:51;19.47;;;11.40;;
14778;SDS011;7481;53.750;10.570;2024-03-07T21:55:19;18.10;;;10.47;;
14778;SDS011;7481;53.750;10.570;2024-03-07T21:59:52;17.77;;;10.57;;
14778;SDS011;7481;53.750;10.570;2024-03-07T22:04:46;16.33;;;9.70;;
14778;SDS011;7481;53.750;10.570;2024-03-07T22:09:14;16.93;;;10.10;;
14778;SDS011;7481;53.750;10.570;2024-03-07T22:13:47;18.50;;;10.87;;
14778;SDS011;7481;53.750;10.570;2024-03-07T22:18:17;19.73;;;10.93;;
14778;SDS011;7481;53.750;10.570;2024-03-07T22:22:45;18.10;;;10.33;;
14778;SDS011;7481;53.750;10.570;2024-03-07T22:27:10;17.17;;;10.37;;
14778;SDS011;7481;53.750;10.570;2024-03-07T22:31:46;19.67;;;10.50;;
14778;SDS011;7481;53.750;10.570;2024-03-07T22:36:11;18.10;;;10.23;;
14778;SDS011;7481;53.750;10.570;2024-03-07T22:40:41;17.80;;;10.90;;
14778;SDS011;7481;53.750;10.570;2024-03-07T22:45:09;23.17;;;12.27;;
14778;SDS011;7481;53.750;10.570;2024-03-07T22:49:42;17.93;;;10.87;;
14778;SDS011;7481;53.750;10.570;2024-03-07T22:54:09;21.23;;;11.40;;
14778;SDS011;7481;53.750;10.570;2024-03-07T22:58:37;22.50;;;12.03;;
14778;SDS011;7481;53.750;10.570;2024-03-07T23:03:02;20.13;;;11.63;;
14778;SDS011;7481;53.750;10.570;2024-03-07T23:07:29;19.63;;;11.60;;
14778;SDS011;7481;53.750;10.570;2024-03-07T23:11:57;18.20;;;11.30;;
14778;SDS011;7481;53.750;10.570;2024-03-07T23:16:26;20.60;;;11.07;;
14778;SDS011;7481;53.750;10.570;2024-03-07T23:20:53;20.70;;;11.93;;
14778;SDS011;7481;53.750;10.570;2024-03-07T23:25:23;20.70;;;12.10;;
14778;SDS011;7481;53.750;10.570;2024-03-07T23:29:51;20.93;;;11.23;;
14778;SDS011;7481;53.750;10.570;2024-03-07T23:34:20;21.13;;;10.70;;
14778;SDS011;7481;53.750;10.570;2024-03-07T23:38:52;21.27;;;11.30;;
14778;SDS011;7481;53.750;10.570;2024-03-07T23:43:25;20.50;;;11.07;;
14778;SDS011;7481;53.750;10.570;2024-03-07T23:47:53;23.57;;;10.97;;
14778;SDS011;7481;53.750;10.570;2024-03-07T23:52:25;22.83;;;12.53;;
14778;SDS011;7481;53.750;10.570;2024-03-07T23:56:54;23.43;;;10.80;;
